sensor_id;sensor_type;location;lat;lon;timestamp;temperature;humidity
17887;DHT22;9069;52.044;7.472;2024-01-11T00:00:34;-1.60;88.30
17887;DHT22;9069;52.044;7.472;2024-01-11T00:03:01;-1.60;88.30
17887;DHT22;9069;52.044;7.472;2024-01-11T00:05:28;-1.20;88.70
17887;DHT22;9069;52.044;7.472;2024-01-11T00:07:55;-1.60;88.50
17887;DHT22;9069;52.044;7.472;2024-01-11T00:10:22;-1.60;88.60
17887;DHT22;9069;52.044;7.472;2024-01-11T00:12:49;-1.60;88.60
17887;DHT22;9069;52.044;7.472;2024-01-11T00:15:16;-1.60;88.70
17887;DHT22;9069;52.044;7.472;2024-01-11T00:17:43;-1.60;88.80
17887;DHT22;9069;52.044;7.472;2024-01-11T00:20:10;-1.60;88.70
17887;DHT22;9069;52.044;7.472;2024-01-11T00:22:37;-1.60;88.60
17887;DHT22;9069;52.044;7.472;2024-01-11T00:25:04;-1.60;88.90
17887;DHT22;9069;52.044;7.472;2024-01-11T00:27:31;-1.60;88.80
17887;DHT22;9069;52.044;7.472;2024-01-11T00:29:58;-1.60;88.90
17887;DHT22;9069;52.044;7.472;2024-01-11T00:32:25;-1.60;88.90
17887;DHT22;9069;52.044;7.472;2024-01-11T00:34:52;-1.60;88.80
17887;DHT22;9069;52.044;7.472;2024-01-11T00:37:19;-1.60;89.00
17887;DHT22;9069;52.044;7.472;2024-01-11T00:39:46;-1.60;89.00
17887;DHT22;9069;52.044;7.472;2024-01-11T00:42:13;-1.60;88.80
17887;DHT22;9069;52.044;7.472;2024-01-11T00:44:39;-1.60;88.90
17887;DHT22;9069;52.044;7.472;2024-01-11T00:47:07;-1.50;89.00
17887;DHT22;9069;52.044;7.472;2024-01-11T00:49:33;-1.60;89.20
17887;DHT22;9069;52.044;7.472;2024-01-11T00:52:00;-1.60;89.30
17887;DHT22;9069;52.044;7.472;2024-01-11T00:54:28;-1.60;89.40
17887;DHT22;9069;52.044;7.472;2024-01-11T00:56:54;-1.70;89.40
17887;DHT22;9069;52.044;7.472;2024-01-11T00:59:21;-1.70;89.50
17887;DHT22;9069;52.044;7.472;2024-01-11T01:01:49;-1.60;89.60
17887;DHT22;9069;52.044;7.472;2024-01-11T01:04:16;-1.60;89.70
17887;DHT22;9069;52.044;7.472;2024-01-11T01:06:43;-1.60;89.80
17887;DHT22;9069;52.044;7.472;2024-01-11T01:09:10;-1.60;89.90
17887;DHT22;9069;52.044;7.472;2024-01-11T01:11:37;-1.60;89.90
17887;DHT22;9069;52.044;7.472;2024-01-11T01:14:05;-1.60;89.90
17887;DHT22;9069;52.044;7.472;2024-01-11T01:16:32;-1.60;89.90
17887;DHT22;9069;52.044;7.472;2024-01-11T01:18:58;-1.60;89.90
17887;DHT22;9069;52.044;7.472;2024-01-11T01:21:26;-1.60;89.80
17887;DHT22;9069;52.044;7.472;2024-01-11T01:23:53;-1.60;89.80
17887;DHT22;9069;52.044;7.472;2024-01-11T01:26:20;-1.60;89.80
17887;DHT22;9069;52.044;7.472;2024-01-11T01:28:47;-1.60;89.90
17887;DHT22;9069;52.044;7.472;2024-01-11T01:31:13;-1.60;90.00
17887;DHT22;9069;52.044;7.472;2024-01-11T01:33:41;-1.70;90.00
17887;DHT22;9069;52.044;7.472;2024-01-11T01:36:12;-1.70;90.00
17887;DHT22;9069;52.044;7.472;2024-01-11T01:38:40;-1.70;90.00
17887;DHT22;9069;52.044;7.472;2024-01-11T01:41:07;-1.70;90.00
17887;DHT22;9069;52.044;7.472;2024-01-11T01:43:34;-1.70;90.00
17887;DHT22;9069;52.044;7.472;2024-01-11T01:46:02;-1.70;90.10
17887;DHT22;9069;52.044;7.472;2024-01-11T01:48:30;-1.70;90.00
17887;DHT22;9069;52.044;7.472;2024-01-11T01:50:57;-1.70;90.10
17887;DHT22;9069;52.044;7.472;2024-01-11T01:53:24;-1.80;90.10
17887;DHT22;9069;52.044;7.472;2024-01-11T01:55:55;-1.80;90.20
17887;DHT22;9069;52.044;7.472;2024-01-11T01:58:22;-1.80;90.20
17887;DHT22;9069;52.044;7.472;2024-01-11T02:00:50;-1.70;90.40
17887;DHT22;9069;52.044;7.472;2024-01-11T02:03:18;-1.80;90.30
17887;DHT22;9069;52.044;7.472;2024-01-11T02:05:45;-1.80;90.50
17887;DHT22;9069;52.044;7.472;2024-01-11T02:08:15;-1.90;90.50
17887;DHT22;9069;52.044;7.472;2024-01-11T02:10:43;-1.80;90.50
17887;DHT22;9069;52.044;7.472;2024-01-11T02:13:11;-1.90;90.60
17887;DHT22;9069;52.044;7.472;2024-01-11T02:15:39;-1.90;90.60
17887;DHT22;9069;52.044;7.472;2024-01-11T02:18:07;-1.90;90.70
17887;DHT22;9069;52.044;7.472;2024-01-11T02:20:34;-1.90;91.00
17887;DHT22;9069;52.044;7.472;2024-01-11T02:23:05;-1.90;91.30
17887;DHT22;9069;52.044;7.472;2024-01-11T02:25:33;-1.90;91.20
17887;DHT22;9069;52.044;7.472;2024-01-11T02:27:59;-1.90;91.30
17887;DHT22;9069;52.044;7.472;2024-01-11T02:30:26;-1.80;91.20
17887;DHT22;9069;52.044;7.472;2024-01-11T02:32:53;-1.80;91.10
17887;DHT22;9069;52.044;7.472;2024-01-11T02:35:21;-1.80;91.10
17887;DHT22;9069;52.044;7.472;2024-01-11T02:37:48;-1.80;91.00
17887;DHT22;9069;52.044;7.472;2024-01-11T02:40:15;-1.80;91.00
17887;DHT22;9069;52.044;7.472;2024-01-11T02:42:45;-1.90;91.10
17887;DHT22;9069;52.044;7.472;2024-01-11T02:45:12;-1.90;91.00
17887;DHT22;9069;52.044;7.472;2024-01-11T02:47:39;-1.90;91.00
17887;DHT22;9069;52.044;7.472;2024-01-11T02:50:07;-1.90;91.00
17887;DHT22;9069;52.044;7.472;2024-01-11T02:52:34;-1.90;91.00
17887;DHT22;9069;52.044;7.472;2024-01-11T02:55:02;-1.90;91.00
17887;DHT22;9069;52.044;7.472;2024-01-11T02:57:28;-2.00;91.00
17887;DHT22;9069;52.044;7.472;2024-01-11T02:59:55;-2.00;91.10
17887;DHT22;9069;52.044;7.472;2024-01-11T03:02:22;-2.00;91.10
17887;DHT22;9069;52.044;7.472;2024-01-11T03:04:49;-2.00;91.10
17887;DHT22;9069;52.044;7.472;2024-01-11T03:07:16;-2.00;91.20
17887;DHT22;9069;52.044;7.472;2024-01-11T03:09:43;-2.00;91.20
17887;DHT22;9069;52.044;7.472;2024-01-11T03:12:10;-2.00;91.30
17887;DHT22;9069;52.044;7.472;2024-01-11T03:14:36;-2.00;91.30
17887;DHT22;9069;52.044;7.472;2024-01-11T03:17:03;-2.00;91.40
17887;DHT22;9069;52.044;7.472;2024-01-11T03:19:31;-2.00;91.40
17887;DHT22;9069;52.044;7.472;2024-01-11T03:21:58;-2.10;91.50
17887;DHT22;9069;52.044;7.472;2024-01-11T03:24:25;-2.10;91.50
17887;DHT22;9069;52.044;7.472;2024-01-11T03:26:51;-2.10;91.50
17887;DHT22;9069;52.044;7.472;2024-01-11T03:29:18;-2.10;91.50
17887;DHT22;9069;52.044;7.472;2024-01-11T03:31:45;-2.10;91.50
17887;DHT22;9069;52.044;7.472;2024-01-11T03:34:12;-2.10;91.90
17887;DHT22;9069;52.044;7.472;2024-01-11T03:36:40;-2.10;91.50
17887;DHT22;9069;52.044;7.472;2024-01-11T03:39:07;-2.10;91.60
17887;DHT22;9069;52.044;7.472;2024-01-11T03:41:33;-2.20;91.60
17887;DHT22;9069;52.044;7.472;2024-01-11T03:44:00;-2.20;91.70
17887;DHT22;9069;52.044;7.472;2024-01-11T03:46:27;-2.20;91.80
17887;DHT22;9069;52.044;7.472;2024-01-11T03:48:54;-2.20;91.90
17887;DHT22;9069;52.044;7.472;2024-01-11T03:51:23;-2.30;91.90
17887;DHT22;9069;52.044;7.472;2024-01-11T03:53:50;-2.30;91.90
17887;DHT22;9069;52.044;7.472;2024-01-11T03:56:17;-2.30;92.00
17887;DHT22;9069;52.044;7.472;2024-01-11T03:58:44;-2.30;92.10
17887;DHT22;9069;52.044;7.472;2024-01-11T04:01:11;-2.30;92.10
17887;DHT22;9069;52.044;7.472;2024-01-11T04:03:38;-2.30;92.10
17887;DHT22;9069;52.044;7.472;2024-01-11T04:06:07;-2.30;92.20
17887;DHT22;9069;52.044;7.472;2024-01-11T04:08:33;-2.30;92.20
17887;DHT22;9069;52.044;7.472;2024-01-11T04:11:04;-2.20;92.30
17887;DHT22;9069;52.044;7.472;2024-01-11T04:13:31;-2.40;92.20
17887;DHT22;9069;52.044;7.472;2024-01-11T04:15:58;-2.40;92.40
17887;DHT22;9069;52.044;7.472;2024-01-11T04:18:24;-2.40;92.40
17887;DHT22;9069;52.044;7.472;2024-01-11T04:20:51;-2.40;92.50
17887;DHT22;9069;52.044;7.472;2024-01-11T04:23:18;-2.40;92.50
17887;DHT22;9069;52.044;7.472;2024-01-11T04:25:45;-2.40;92.50
17887;DHT22;9069;52.044;7.472;2024-01-11T04:28:12;-2.40;92.50
17887;DHT22;9069;52.044;7.472;2024-01-11T04:30:39;-2.40;92.50
17887;DHT22;9069;52.044;7.472;2024-01-11T04:33:05;-2.40;92.60
17887;DHT22;9069;52.044;7.472;2024-01-11T04:35:32;-2.40;92.60
17887;DHT22;9069;52.044;7.472;2024-01-11T04:37:59;-2.40;92.70
17887;DHT22;9069;52.044;7.472;2024-01-11T04:40:26;-2.20;92.80
17887;DHT22;9069;52.044;7.472;2024-01-11T04:42:53;-2.30;92.80
17887;DHT22;9069;52.044;7.472;2024-01-11T04:45:20;-2.40;92.80
17887;DHT22;9069;52.044;7.472;2024-01-11T04:47:46;-2.50;92.80
17887;DHT22;9069;52.044;7.472;2024-01-11T04:50:13;-2.40;92.90
17887;DHT22;9069;52.044;7.472;2024-01-11T04:52:40;-2.50;92.90
17887;DHT22;9069;52.044;7.472;2024-01-11T04:55:08;-2.50;92.90
17887;DHT22;9069;52.044;7.472;2024-01-11T04:57:35;-2.50;92.90
17887;DHT22;9069;52.044;7.472;2024-01-11T05:00:02;-2.50;92.90
17887;DHT22;9069;52.044;7.472;2024-01-11T05:02:29;-2.50;93.00
17887;DHT22;9069;52.044;7.472;2024-01-11T05:04:56;-2.50;93.00
17887;DHT22;9069;52.044;7.472;2024-01-11T05:07:23;-2.50;93.00
17887;DHT22;9069;52.044;7.472;2024-01-11T05:09:50;-2.50;93.00
17887;DHT22;9069;52.044;7.472;2024-01-11T05:12:16;-2.50;93.00
17887;DHT22;9069;52.044;7.472;2024-01-11T05:14:43;-2.50;93.10
17887;DHT22;9069;52.044;7.472;2024-01-11T05:17:10;-2.50;93.10
17887;DHT22;9069;52.044;7.472;2024-01-11T05:19:38;-2.40;93.10
17887;DHT22;9069;52.044;7.472;2024-01-11T05:22:05;-2.40;93.10
17887;DHT22;9069;52.044;7.472;2024-01-11T05:24:32;-2.50;93.10
17887;DHT22;9069;52.044;7.472;2024-01-11T05:26:58;-2.50;93.10
17887;DHT22;9069;52.044;7.472;2024-01-11T05:29:26;-2.50;93.00
17887;DHT22;9069;52.044;7.472;2024-01-11T05:31:53;-2.50;93.00
17887;DHT22;9069;52.044;7.472;2024-01-11T05:34:20;-2.50;92.90
17887;DHT22;9069;52.044;7.472;2024-01-11T05:36:47;-2.40;92.90
17887;DHT22;9069;52.044;7.472;2024-01-11T05:39:14;-2.30;92.80
17887;DHT22;9069;52.044;7.472;2024-01-11T05:41:44;-2.40;92.70
17887;DHT22;9069;52.044;7.472;2024-01-11T05:44:12;-2.40;92.60
17887;DHT22;9069;52.044;7.472;2024-01-11T05:46:38;-2.40;92.60
17887;DHT22;9069;52.044;7.472;2024-01-11T05:49:05;-2.40;92.70
17887;DHT22;9069;52.044;7.472;2024-01-11T05:51:32;-2.40;92.70
17887;DHT22;9069;52.044;7.472;2024-01-11T05:53:59;-2.40;92.70
17887;DHT22;9069;52.044;7.472;2024-01-11T05:56:26;-2.40;92.80
17887;DHT22;9069;52.044;7.472;2024-01-11T05:58:54;-2.40;92.90
17887;DHT22;9069;52.044;7.472;2024-01-11T06:01:21;-2.40;92.90
17887;DHT22;9069;52.044;7.472;2024-01-11T06:03:48;-2.40;93.40
17887;DHT22;9069;52.044;7.472;2024-01-11T06:06:15;-2.40;93.40
17887;DHT22;9069;52.044;7.472;2024-01-11T06:08:42;-2.40;93.10
17887;DHT22;9069;52.044;7.472;2024-01-11T06:11:10;-2.40;93.10
17887;DHT22;9069;52.044;7.472;2024-01-11T06:13:37;-2.50;93.10
17887;DHT22;9069;52.044;7.472;2024-01-11T06:16:03;-2.50;93.20
17887;DHT22;9069;52.044;7.472;2024-01-11T06:18:30;-2.50;93.30
17887;DHT22;9069;52.044;7.472;2024-01-11T06:20:57;-2.50;93.30
17887;DHT22;9069;52.044;7.472;2024-01-11T06:23:25;-2.50;93.30
17887;DHT22;9069;52.044;7.472;2024-01-11T06:25:52;-2.50;93.30
17887;DHT22;9069;52.044;7.472;2024-01-11T06:28:19;-2.50;93.30
17887;DHT22;9069;52.044;7.472;2024-01-11T06:30:45;-2.60;93.30
17887;DHT22;9069;52.044;7.472;2024-01-11T06:33:12;-2.60;93.40
17887;DHT22;9069;52.044;7.472;2024-01-11T06:35:39;-2.60;93.40
17887;DHT22;9069;52.044;7.472;2024-01-11T06:38:06;-2.60;93.50
17887;DHT22;9069;52.044;7.472;2024-01-11T06:40:34;-2.60;93.60
17887;DHT22;9069;52.044;7.472;2024-01-11T06:43:01;-2.50;93.70
17887;DHT22;9069;52.044;7.472;2024-01-11T06:45:28;-2.70;93.70
17887;DHT22;9069;52.044;7.472;2024-01-11T06:47:54;-2.70;93.80
17887;DHT22;9069;52.044;7.472;2024-01-11T06:50:21;-2.70;93.90
17887;DHT22;9069;52.044;7.472;2024-01-11T06:52:48;-2.70;93.90
17887;DHT22;9069;52.044;7.472;2024-01-11T06:55:15;-2.70;94.00
17887;DHT22;9069;52.044;7.472;2024-01-11T06:57:42;-2.90;94.00
17887;DHT22;9069;52.044;7.472;2024-01-11T07:00:12;-2.70;94.10
17887;DHT22;9069;52.044;7.472;2024-01-11T07:02:40;-2.70;94.10
17887;DHT22;9069;52.044;7.472;2024-01-11T07:05:07;-2.70;94.10
17887;DHT22;9069;52.044;7.472;2024-01-11T07:07:34;-2.70;94.10
17887;DHT22;9069;52.044;7.472;2024-01-11T07:10:01;-2.70;94.10
17887;DHT22;9069;52.044;7.472;2024-01-11T07:12:28;-2.70;94.10
17887;DHT22;9069;52.044;7.472;2024-01-11T07:14:55;-2.60;94.10
17887;DHT22;9069;52.044;7.472;2024-01-11T07:17:22;-2.60;94.10
17887;DHT22;9069;52.044;7.472;2024-01-11T07:19:49;-2.60;94.00
17887;DHT22;9069;52.044;7.472;2024-01-11T07:22:16;-2.60;94.00
17887;DHT22;9069;52.044;7.472;2024-01-11T07:24:43;-2.60;93.90
17887;DHT22;9069;52.044;7.472;2024-01-11T07:27:09;-2.60;93.80
17887;DHT22;9069;52.044;7.472;2024-01-11T07:29:36;-2.50;93.80
17887;DHT22;9069;52.044;7.472;2024-01-11T07:32:03;-2.50;93.80
17887;DHT22;9069;52.044;7.472;2024-01-11T07:34:31;-2.50;93.70
17887;DHT22;9069;52.044;7.472;2024-01-11T07:36:58;-2.50;93.60
17887;DHT22;9069;52.044;7.472;2024-01-11T07:39:25;-2.50;93.60
17887;DHT22;9069;52.044;7.472;2024-01-11T07:41:52;-2.50;93.60
17887;DHT22;9069;52.044;7.472;2024-01-11T07:44:19;-2.50;93.60
17887;DHT22;9069;52.044;7.472;2024-01-11T07:46:47;-2.40;93.60
17887;DHT22;9069;52.044;7.472;2024-01-11T07:49:20;-2.40;93.60
17887;DHT22;9069;52.044;7.472;2024-01-11T07:51:47;-2.40;93.70
17887;DHT22;9069;52.044;7.472;2024-01-11T07:54:14;-2.40;93.70
17887;DHT22;9069;52.044;7.472;2024-01-11T07:56:41;-2.40;93.80
17887;DHT22;9069;52.044;7.472;2024-01-11T07:59:09;-2.40;93.90
17887;DHT22;9069;52.044;7.472;2024-01-11T08:01:40;-2.40;93.90
17887;DHT22;9069;52.044;7.472;2024-01-11T08:04:07;-2.20;94.00
17887;DHT22;9069;52.044;7.472;2024-01-11T08:06:34;-2.30;94.00
17887;DHT22;9069;52.044;7.472;2024-01-11T08:09:01;-2.30;94.00
17887;DHT22;9069;52.044;7.472;2024-01-11T08:11:31;-2.40;94.10
17887;DHT22;9069;52.044;7.472;2024-01-11T08:14:04;-2.20;94.10
17887;DHT22;9069;52.044;7.472;2024-01-11T08:16:32;-2.20;94.10
17887;DHT22;9069;52.044;7.472;2024-01-11T08:18:59;-2.40;94.10
17887;DHT22;9069;52.044;7.472;2024-01-11T08:21:27;-2.40;94.20
17887;DHT22;9069;52.044;7.472;2024-01-11T08:23:55;-2.40;94.20
17887;DHT22;9069;52.044;7.472;2024-01-11T08:26:27;-2.30;94.30
17887;DHT22;9069;52.044;7.472;2024-01-11T08:28:53;-2.30;94.40
17887;DHT22;9069;52.044;7.472;2024-01-11T08:31:20;-2.30;94.40
17887;DHT22;9069;52.044;7.472;2024-01-11T08:33:47;-2.30;94.50
17887;DHT22;9069;52.044;7.472;2024-01-11T08:36:14;-2.30;94.50
17887;DHT22;9069;52.044;7.472;2024-01-11T08:38:42;-2.30;94.60
17887;DHT22;9069;52.044;7.472;2024-01-11T08:41:12;-2.30;94.60
17887;DHT22;9069;52.044;7.472;2024-01-11T08:43:39;-2.20;94.60
17887;DHT22;9069;52.044;7.472;2024-01-11T08:46:06;-2.20;94.70
17887;DHT22;9069;52.044;7.472;2024-01-11T08:48:32;-2.20;94.80
17887;DHT22;9069;52.044;7.472;2024-01-11T08:50:59;-2.20;94.80
17887;DHT22;9069;52.044;7.472;2024-01-11T08:53:28;-2.10;94.90
17887;DHT22;9069;52.044;7.472;2024-01-11T08:55:55;-2.10;94.90
17887;DHT22;9069;52.044;7.472;2024-01-11T08:58:21;-2.10;94.90
17887;DHT22;9069;52.044;7.472;2024-01-11T09:00:48;-2.10;94.90
17887;DHT22;9069;52.044;7.472;2024-01-11T09:03:15;-2.00;95.00
17887;DHT22;9069;52.044;7.472;2024-01-11T09:05:43;-2.00;95.30
17887;DHT22;9069;52.044;7.472;2024-01-11T09:08:10;-2.00;95.00
17887;DHT22;9069;52.044;7.472;2024-01-11T09:10:37;-2.00;95.10
17887;DHT22;9069;52.044;7.472;2024-01-11T09:13:04;-2.00;95.10
17887;DHT22;9069;52.044;7.472;2024-01-11T09:15:31;-2.00;95.10
17887;DHT22;9069;52.044;7.472;2024-01-11T09:17:58;-1.90;95.20
17887;DHT22;9069;52.044;7.472;2024-01-11T09:20:27;-1.80;95.40
17887;DHT22;9069;52.044;7.472;2024-01-11T09:22:54;-1.90;96.00
17887;DHT22;9069;52.044;7.472;2024-01-11T09:25:22;-1.70;96.70
17887;DHT22;9069;52.044;7.472;2024-01-11T09:27:49;-1.60;97.30
17887;DHT22;9069;52.044;7.472;2024-01-11T09:30:16;-1.50;97.70
17887;DHT22;9069;52.044;7.472;2024-01-11T09:32:43;-1.30;97.90
17887;DHT22;9069;52.044;7.472;2024-01-11T09:35:10;-1.00;97.90
17887;DHT22;9069;52.044;7.472;2024-01-11T09:37:41;-0.80;97.90
17887;DHT22;9069;52.044;7.472;2024-01-11T09:40:09;-0.50;97.90
17887;DHT22;9069;52.044;7.472;2024-01-11T09:42:40;-0.30;98.20
17887;DHT22;9069;52.044;7.472;2024-01-11T09:45:15;0.00;98.60
17887;DHT22;9069;52.044;7.472;2024-01-11T09:47:46;0.30;99.00
17887;DHT22;9069;52.044;7.472;2024-01-11T09:50:15;0.70;99.20
17887;DHT22;9069;52.044;7.472;2024-01-11T09:52:49;1.00;99.50
17887;DHT22;9069;52.044;7.472;2024-01-11T09:55:17;1.50;99.60
17887;DHT22;9069;52.044;7.472;2024-01-11T09:57:45;1.90;99.80
17887;DHT22;9069;52.044;7.472;2024-01-11T10:00:23;2.30;99.70
17887;DHT22;9069;52.044;7.472;2024-01-11T10:02:50;2.80;99.30
17887;DHT22;9069;52.044;7.472;2024-01-11T10:05:17;3.30;99.70
17887;DHT22;9069;52.044;7.472;2024-01-11T10:07:45;3.70;99.50
17887;DHT22;9069;52.044;7.472;2024-01-11T10:10:16;4.20;99.20
17887;DHT22;9069;52.044;7.472;2024-01-11T10:12:43;4.70;98.60
17887;DHT22;9069;52.044;7.472;2024-01-11T10:15:10;5.10;98.10
17887;DHT22;9069;52.044;7.472;2024-01-11T10:17:42;5.50;97.40
17887;DHT22;9069;52.044;7.472;2024-01-11T10:20:13;5.90;95.90
17887;DHT22;9069;52.044;7.472;2024-01-11T10:22:41;6.20;94.90
17887;DHT22;9069;52.044;7.472;2024-01-11T10:25:16;6.40;92.40
17887;DHT22;9069;52.044;7.472;2024-01-11T10:27:44;6.50;84.80
17887;DHT22;9069;52.044;7.472;2024-01-11T10:30:13;6.40;85.10
17887;DHT22;9069;52.044;7.472;2024-01-11T10:32:40;6.30;84.10
17887;DHT22;9069;52.044;7.472;2024-01-11T10:35:07;6.10;82.90
17887;DHT22;9069;52.044;7.472;2024-01-11T10:37:34;5.90;82.10
17887;DHT22;9069;52.044;7.472;2024-01-11T10:40:06;5.70;80.60
17887;DHT22;9069;52.044;7.472;2024-01-11T10:42:42;5.40;80.20
17887;DHT22;9069;52.044;7.472;2024-01-11T10:45:18;5.20;81.00
17887;DHT22;9069;52.044;7.472;2024-01-11T10:50:12;4.70;83.40
17887;DHT22;9069;52.044;7.472;2024-01-11T10:52:46;4.50;84.70
17887;DHT22;9069;52.044;7.472;2024-01-11T10:55:17;4.30;85.50
17887;DHT22;9069;52.044;7.472;2024-01-11T10:57:46;4.20;86.80
17887;DHT22;9069;52.044;7.472;2024-01-11T11:00:16;4.10;87.70
17887;DHT22;9069;52.044;7.472;2024-01-11T11:02:46;4.00;88.90
17887;DHT22;9069;52.044;7.472;2024-01-11T11:05:13;3.90;89.90
17887;DHT22;9069;52.044;7.472;2024-01-11T11:07:42;3.80;90.50
17887;DHT22;9069;52.044;7.472;2024-01-11T11:10:09;3.80;90.90
17887;DHT22;9069;52.044;7.472;2024-01-11T11:12:37;3.80;91.20
17887;DHT22;9069;52.044;7.472;2024-01-11T11:15:05;3.80;91.40
17887;DHT22;9069;52.044;7.472;2024-01-11T11:17:33;3.70;91.90
17887;DHT22;9069;52.044;7.472;2024-01-11T11:20:02;3.70;92.00
17887;DHT22;9069;52.044;7.472;2024-01-11T11:22:34;3.70;92.30
17887;DHT22;9069;52.044;7.472;2024-01-11T11:25:09;3.70;92.40
17887;DHT22;9069;52.044;7.472;2024-01-11T11:27:37;3.70;92.60
17887;DHT22;9069;52.044;7.472;2024-01-11T11:30:04;3.70;93.10
17887;DHT22;9069;52.044;7.472;2024-01-11T11:32:43;3.70;93.30
17887;DHT22;9069;52.044;7.472;2024-01-11T11:35:10;3.70;93.30
17887;DHT22;9069;52.044;7.472;2024-01-11T11:37:40;3.80;93.80
17887;DHT22;9069;52.044;7.472;2024-01-11T11:40:10;3.80;94.00
17887;DHT22;9069;52.044;7.472;2024-01-11T11:42:37;3.80;94.20
17887;DHT22;9069;52.044;7.472;2024-01-11T11:45:08;3.80;94.50
17887;DHT22;9069;52.044;7.472;2024-01-11T11:47:38;3.80;94.60
17887;DHT22;9069;52.044;7.472;2024-01-11T11:50:11;3.80;94.80
17887;DHT22;9069;52.044;7.472;2024-01-11T11:52:40;3.90;94.90
17887;DHT22;9069;52.044;7.472;2024-01-11T11:55:11;3.90;95.10
17887;DHT22;9069;52.044;7.472;2024-01-11T11:57:43;3.90;95.10
17887;DHT22;9069;52.044;7.472;2024-01-11T12:00:10;3.90;95.20
17887;DHT22;9069;52.044;7.472;2024-01-11T12:02:39;4.00;95.40
17887;DHT22;9069;52.044;7.472;2024-01-11T12:05:06;4.00;95.50
17887;DHT22;9069;52.044;7.472;2024-01-11T12:07:33;4.00;95.50
17887;DHT22;9069;52.044;7.472;2024-01-11T12:10:00;4.00;95.60
17887;DHT22;9069;52.044;7.472;2024-01-11T12:12:28;4.00;95.70
17887;DHT22;9069;52.044;7.472;2024-01-11T12:14:57;4.00;95.80
17887;DHT22;9069;52.044;7.472;2024-01-11T12:17:25;4.00;95.90
17887;DHT22;9069;52.044;7.472;2024-01-11T12:19:52;4.00;96.00
17887;DHT22;9069;52.044;7.472;2024-01-11T12:22:20;4.00;96.10
17887;DHT22;9069;52.044;7.472;2024-01-11T12:24:46;4.00;96.30
17887;DHT22;9069;52.044;7.472;2024-01-11T12:27:14;4.00;96.40
17887;DHT22;9069;52.044;7.472;2024-01-11T12:29:41;4.00;96.50
17887;DHT22;9069;52.044;7.472;2024-01-11T12:32:22;4.00;96.60
17887;DHT22;9069;52.044;7.472;2024-01-11T12:34:49;4.00;96.70
17887;DHT22;9069;52.044;7.472;2024-01-11T12:37:16;4.10;96.80
17887;DHT22;9069;52.044;7.472;2024-01-11T12:39:43;4.10;96.90
17887;DHT22;9069;52.044;7.472;2024-01-11T12:42:10;4.10;96.90
17887;DHT22;9069;52.044;7.472;2024-01-11T12:44:37;4.10;97.00
17887;DHT22;9069;52.044;7.472;2024-01-11T12:47:07;4.10;97.10
17887;DHT22;9069;52.044;7.472;2024-01-11T12:49:34;4.10;97.10
17887;DHT22;9069;52.044;7.472;2024-01-11T12:52:01;4.10;97.10
17887;DHT22;9069;52.044;7.472;2024-01-11T12:54:32;4.10;97.10
17887;DHT22;9069;52.044;7.472;2024-01-11T12:57:00;4.20;97.20
17887;DHT22;9069;52.044;7.472;2024-01-11T12:59:29;4.20;97.20
17887;DHT22;9069;52.044;7.472;2024-01-11T13:01:56;4.20;97.20
17887;DHT22;9069;52.044;7.472;2024-01-11T13:04:23;4.20;97.30
17887;DHT22;9069;52.044;7.472;2024-01-11T13:06:50;4.20;97.40
17887;DHT22;9069;52.044;7.472;2024-01-11T13:09:17;4.20;97.50
17887;DHT22;9069;52.044;7.472;2024-01-11T13:11:44;4.20;97.50
17887;DHT22;9069;52.044;7.472;2024-01-11T13:14:11;4.20;97.50
17887;DHT22;9069;52.044;7.472;2024-01-11T13:16:45;4.20;97.50
17887;DHT22;9069;52.044;7.472;2024-01-11T13:19:12;4.20;97.50
17887;DHT22;9069;52.044;7.472;2024-01-11T13:21:52;4.20;97.90
17887;DHT22;9069;52.044;7.472;2024-01-11T13:24:19;4.20;97.60
17887;DHT22;9069;52.044;7.472;2024-01-11T13:26:46;4.20;97.70
17887;DHT22;9069;52.044;7.472;2024-01-11T13:29:13;4.20;97.70
17887;DHT22;9069;52.044;7.472;2024-01-11T13:31:40;4.20;97.70
17887;DHT22;9069;52.044;7.472;2024-01-11T13:34:08;4.20;97.80
17887;DHT22;9069;52.044;7.472;2024-01-11T13:36:35;4.20;97.80
17887;DHT22;9069;52.044;7.472;2024-01-11T13:39:01;4.20;97.80
17887;DHT22;9069;52.044;7.472;2024-01-11T13:41:29;4.20;97.90
17887;DHT22;9069;52.044;7.472;2024-01-11T13:43:56;4.20;98.00
17887;DHT22;9069;52.044;7.472;2024-01-11T13:46:23;4.20;98.00
17887;DHT22;9069;52.044;7.472;2024-01-11T13:48:50;4.30;98.00
17887;DHT22;9069;52.044;7.472;2024-01-11T13:51:17;4.30;98.10
17887;DHT22;9069;52.044;7.472;2024-01-11T13:53:44;4.30;98.10
17887;DHT22;9069;52.044;7.472;2024-01-11T13:56:10;4.30;98.10
17887;DHT22;9069;52.044;7.472;2024-01-11T13:58:37;4.30;98.10
17887;DHT22;9069;52.044;7.472;2024-01-11T14:01:04;4.30;98.10
17887;DHT22;9069;52.044;7.472;2024-01-11T14:03:31;4.30;98.10
17887;DHT22;9069;52.044;7.472;2024-01-11T14:05:58;4.00;98.10
17887;DHT22;9069;52.044;7.472;2024-01-11T14:08:27;4.30;98.10
17887;DHT22;9069;52.044;7.472;2024-01-11T14:10:53;4.30;98.00
17887;DHT22;9069;52.044;7.472;2024-01-11T14:13:21;4.30;98.30
17887;DHT22;9069;52.044;7.472;2024-01-11T14:15:48;4.30;98.00
17887;DHT22;9069;52.044;7.472;2024-01-11T14:18:15;4.30;98.00
17887;DHT22;9069;52.044;7.472;2024-01-11T14:20:42;4.30;98.00
17887;DHT22;9069;52.044;7.472;2024-01-11T14:23:09;4.30;98.00
17887;DHT22;9069;52.044;7.472;2024-01-11T14:25:36;4.30;98.10
17887;DHT22;9069;52.044;7.472;2024-01-11T14:28:04;4.30;98.10
17887;DHT22;9069;52.044;7.472;2024-01-11T14:30:31;4.30;98.10
17887;DHT22;9069;52.044;7.472;2024-01-11T14:32:58;4.20;98.10
17887;DHT22;9069;52.044;7.472;2024-01-11T14:35:25;4.20;98.10
17887;DHT22;9069;52.044;7.472;2024-01-11T14:37:51;4.20;98.20
17887;DHT22;9069;52.044;7.472;2024-01-11T14:40:19;4.20;98.20
17887;DHT22;9069;52.044;7.472;2024-01-11T14:42:47;4.20;98.20
17887;DHT22;9069;52.044;7.472;2024-01-11T14:45:14;4.20;98.30
17887;DHT22;9069;52.044;7.472;2024-01-11T14:47:41;4.20;98.30
17887;DHT22;9069;52.044;7.472;2024-01-11T14:50:08;4.20;98.30
17887;DHT22;9069;52.044;7.472;2024-01-11T14:52:39;4.20;98.30
17887;DHT22;9069;52.044;7.472;2024-01-11T14:55:07;4.20;98.40
17887;DHT22;9069;52.044;7.472;2024-01-11T14:57:36;4.20;98.40
17887;DHT22;9069;52.044;7.472;2024-01-11T15:00:04;4.20;98.50
17887;DHT22;9069;52.044;7.472;2024-01-11T15:02:34;4.20;98.50
17887;DHT22;9069;52.044;7.472;2024-01-11T15:05:01;4.10;98.50
17887;DHT22;9069;52.044;7.472;2024-01-11T15:07:28;4.20;98.60
17887;DHT22;9069;52.044;7.472;2024-01-11T15:09:55;4.10;98.60
17887;DHT22;9069;52.044;7.472;2024-01-11T15:12:22;4.10;98.70
17887;DHT22;9069;52.044;7.472;2024-01-11T15:14:48;4.10;98.70
17887;DHT22;9069;52.044;7.472;2024-01-11T15:17:17;4.10;98.70
17887;DHT22;9069;52.044;7.472;2024-01-11T15:19:45;4.10;98.80
17887;DHT22;9069;52.044;7.472;2024-01-11T15:22:12;4.10;98.80
17887;DHT22;9069;52.044;7.472;2024-01-11T15:24:41;4.10;98.90
17887;DHT22;9069;52.044;7.472;2024-01-11T15:27:09;4.10;98.90
17887;DHT22;9069;52.044;7.472;2024-01-11T15:29:36;4.10;98.90
17887;DHT22;9069;52.044;7.472;2024-01-11T15:32:04;4.10;99.00
17887;DHT22;9069;52.044;7.472;2024-01-11T15:34:32;4.10;99.00
17887;DHT22;9069;52.044;7.472;2024-01-11T15:37:01;4.10;99.10
17887;DHT22;9069;52.044;7.472;2024-01-11T15:39:28;4.10;99.00
17887;DHT22;9069;52.044;7.472;2024-01-11T15:41:57;4.10;99.10
17887;DHT22;9069;52.044;7.472;2024-01-11T15:44:26;4.10;99.10
17887;DHT22;9069;52.044;7.472;2024-01-11T15:46:55;4.10;99.20
17887;DHT22;9069;52.044;7.472;2024-01-11T15:49:23;4.10;99.20
17887;DHT22;9069;52.044;7.472;2024-01-11T15:51:50;4.10;99.20
17887;DHT22;9069;52.044;7.472;2024-01-11T15:54:19;4.10;99.30
17887;DHT22;9069;52.044;7.472;2024-01-11T15:56:48;4.00;99.30